createdAt,value
2022-09-02T00:00:50.544Z,20.90
2022-09-02T00:01:56.661Z,20.90
2022-09-02T00:03:00.888Z,20.89
2022-09-02T00:04:05.523Z,20.87
2022-09-02T00:05:08.811Z,20.87
2022-09-02T00:06:11.800Z,20.87
2022-09-02T00:07:14.549Z,20.86
2022-09-02T00:08:16.116Z,20.85
2022-09-02T00:09:21.922Z,20.85
2022-09-02T00:10:23.711Z,20.85
2022-09-02T00:11:29.509Z,20.85
2022-09-02T00:12:31.112Z,20.84
2022-09-02T00:13:34.559Z,20.84
2022-09-02T00:14:38.015Z,20.83
2022-09-02T00:15:40.772Z,20.83
2022-09-02T00:16:52.198Z,20.83
2022-09-02T00:17:55.389Z,20.82
2022-09-02T00:19:02.776Z,20.82
2022-09-02T00:20:06.084Z,20.81
2022-09-02T00:21:08.267Z,20.81
2022-09-02T00:22:10.888Z,20.81
2022-09-02T00:23:13.322Z,20.80
2022-09-02T00:24:16.184Z,20.80
2022-09-02T00:25:17.840Z,20.79
2022-09-02T00:26:21.280Z,20.79
2022-09-02T00:27:23.146Z,20.79
2022-09-02T00:28:25.760Z,20.80
2022-09-02T00:29:30.005Z,20.81
2022-09-02T00:30:32.756Z,20.81
2022-09-02T00:31:36.644Z,20.81
2022-09-02T00:32:38.614Z,20.81
2022-09-02T00:33:41.706Z,20.82
2022-09-02T00:34:44.849Z,20.82
2022-09-02T00:35:47.643Z,20.83
2022-09-02T00:36:49.392Z,20.83
2022-09-02T00:37:52.301Z,20.84
2022-09-02T00:38:53.960Z,20.84
2022-09-02T00:39:58.086Z,20.85
2022-09-02T00:41:01.403Z,20.84
2022-09-02T00:42:05.282Z,20.84
2022-09-02T00:43:07.976Z,20.85
2022-09-02T00:44:13.181Z,20.87
2022-09-02T00:45:15.039Z,20.85
2022-09-02T00:46:19.869Z,20.86
2022-09-02T00:47:22.200Z,20.85
2022-09-02T00:48:24.902Z,20.87
2022-09-02T00:49:29.217Z,20.87
2022-09-02T00:50:36.555Z,20.85
2022-09-02T00:51:43.349Z,20.87
2022-09-02T00:52:50.141Z,20.86
2022-09-02T00:53:52.153Z,20.86
2022-09-02T00:54:58.171Z,20.86
2022-09-02T00:56:02.188Z,20.85
2022-09-02T00:57:10.720Z,20.85
2022-09-02T00:58:16.881Z,20.85
2022-09-02T00:59:24.636Z,20.85
2022-09-02T01:00:34.472Z,20.86
2022-09-02T01:01:37.692Z,20.87
2022-09-02T01:02:41.611Z,20.86
2022-09-02T01:03:44.308Z,20.86
2022-09-02T01:04:46.586Z,20.86
2022-09-02T01:05:52.845Z,20.87
2022-09-02T01:06:54.461Z,20.87
2022-09-02T01:07:58.755Z,20.88
2022-09-02T01:09:07.486Z,20.88
2022-09-02T01:10:12.956Z,20.89
2022-09-02T01:11:16.257Z,20.88
2022-09-02T01:12:19.821Z,20.88
2022-09-02T01:13:24.899Z,20.87
2022-09-02T01:14:28.857Z,20.88
2022-09-02T01:15:31.132Z,20.89
2022-09-02T01:16:42.722Z,20.89
2022-09-02T01:17:48.562Z,20.89
2022-09-02T01:18:54.649Z,20.88
2022-09-02T01:20:01.546Z,20.88
2022-09-02T01:21:06.131Z,20.89
2022-09-02T01:22:18.096Z,20.88
2022-09-02T01:23:21.055Z,20.87
2022-09-02T01:24:28.221Z,20.88
2022-09-02T01:25:32.993Z,20.88
2022-09-02T01:26:35.619Z,20.87
2022-09-02T01:27:37.406Z,20.86
2022-09-02T01:28:40.664Z,20.86
2022-09-02T01:29:42.499Z,20.87
2022-09-02T01:30:48.265Z,20.88
2022-09-02T01:31:50.161Z,20.88
2022-09-02T01:32:53.614Z,20.87
2022-09-02T01:33:55.459Z,20.88
2022-09-02T01:34:59.199Z,20.89
2022-09-02T01:36:02.875Z,20.90
2022-09-02T01:37:05.629Z,20.91
2022-09-02T01:38:09.255Z,20.90
2022-09-02T01:39:14.279Z,20.91
2022-09-02T01:40:18.247Z,20.90
2022-09-02T01:41:20.856Z,20.90
2022-09-02T01:42:22.680Z,20.88
2022-09-02T01:43:28.169Z,20.88
2022-09-02T01:44:29.923Z,20.87
2022-09-02T01:45:32.783Z,20.87
2022-09-02T01:46:35.231Z,20.83
2022-09-02T01:47:38.578Z,20.83
2022-09-02T01:48:40.578Z,20.82
2022-09-02T01:49:43.995Z,20.80
2022-09-02T01:50:49.158Z,20.79
2022-09-02T01:51:55.099Z,20.78
2022-09-02T01:52:59.379Z,20.77
2022-09-02T01:54:03.925Z,20.77
2022-09-02T01:55:06.086Z,20.76
2022-09-02T01:56:08.694Z,20.74
2022-09-02T01:57:10.793Z,20.73
2022-09-02T01:58:13.479Z,20.72
2022-09-02T01:59:17.916Z,20.70
2022-09-02T02:00:22.383Z,20.68
2022-09-02T02:01:24.268Z,20.69
2022-09-02T02:02:27.064Z,20.68
2022-09-02T02:03:28.876Z,20.67
2022-09-02T02:04:32.152Z,20.66
2022-09-02T02:05:34.272Z,20.65
2022-09-02T02:06:36.979Z,20.65
2022-09-02T02:07:38.664Z,20.65
2022-09-02T02:08:42.007Z,20.65
2022-09-02T02:09:45.129Z,20.65
2022-09-02T02:10:47.716Z,20.66
2022-09-02T02:11:49.729Z,20.66
2022-09-02T02:12:52.488Z,20.65
2022-09-02T02:13:54.199Z,20.65
2022-09-02T02:14:57.110Z,20.66
2022-09-02T02:15:58.992Z,20.64
2022-09-02T02:17:01.750Z,20.66
2022-09-02T02:18:03.530Z,20.66
2022-09-02T02:19:07.191Z,20.66
2022-09-02T02:20:11.109Z,20.66
2022-09-02T02:21:13.771Z,20.65
2022-09-02T02:22:15.667Z,20.65
2022-09-02T02:23:18.908Z,20.66
2022-09-02T02:24:20.658Z,20.67
2022-09-02T02:25:24.900Z,20.68
2022-09-02T02:26:26.676Z,20.67
2022-09-02T02:27:29.354Z,20.68
2022-09-02T02:28:32.027Z,20.66
2022-09-02T02:29:34.728Z,20.67
2022-09-02T02:30:36.479Z,20.67
2022-09-02T02:31:39.371Z,20.67
2022-09-02T02:32:41.942Z,20.67
2022-09-02T02:33:44.626Z,20.67
2022-09-02T02:34:46.607Z,20.66
2022-09-02T02:35:49.320Z,20.66
2022-09-02T02:36:51.287Z,20.66
2022-09-02T02:37:54.358Z,20.65
2022-09-02T02:38:57.846Z,20.66
2022-09-02T02:40:00.470Z,20.64
2022-09-02T02:41:06.242Z,20.63
2022-09-02T02:42:09.512Z,20.62
2022-09-02T02:43:11.228Z,20.61
2022-09-02T02:44:13.972Z,20.62
2022-09-02T02:45:15.805Z,20.61
2022-09-02T02:46:19.443Z,20.60
2022-09-02T02:47:21.396Z,20.59
2022-09-02T02:48:26.331Z,20.57
2022-09-02T02:49:28.324Z,20.57
2022-09-02T02:50:30.920Z,20.57
2022-09-02T02:51:32.714Z,20.56
2022-09-02T02:52:35.487Z,20.55
2022-09-02T02:53:37.280Z,20.53
2022-09-02T02:54:41.080Z,20.53
2022-09-02T02:55:42.787Z,20.54
2022-09-02T02:56:47.273Z,20.53
2022-09-02T02:57:50.097Z,20.53
2022-09-02T02:58:53.397Z,20.51
2022-09-02T02:59:55.197Z,20.52
2022-09-02T03:00:58.778Z,20.52
2022-09-02T03:02:01.405Z,20.51
2022-09-02T03:03:07.158Z,20.51
2022-09-02T03:04:08.881Z,20.51
2022-09-02T03:05:13.845Z,20.50
2022-09-02T03:06:15.433Z,20.48
2022-09-02T03:07:22.209Z,20.47
2022-09-02T03:08:25.718Z,20.47
2022-09-02T03:09:28.351Z,20.45
2022-09-02T03:10:32.792Z,20.46
2022-09-02T03:11:38.910Z,20.45
2022-09-02T03:12:42.447Z,20.44
2022-09-02T03:13:48.339Z,20.42
2022-09-02T03:14:50.100Z,20.41
2022-09-02T03:15:53.170Z,20.41
2022-09-02T03:16:55.663Z,20.41
2022-09-02T03:17:59.377Z,20.39
2022-09-02T03:19:04.598Z,20.40
2022-09-02T03:20:09.364Z,20.39
2022-09-02T03:21:15.941Z,20.38
2022-09-02T03:22:22.076Z,20.37
2022-09-02T03:23:24.271Z,20.36
2022-09-02T03:24:27.432Z,20.34
2022-09-02T03:25:35.820Z,20.34
2022-09-02T03:26:41.779Z,20.34
2022-09-02T03:27:46.387Z,20.32
2022-09-02T03:28:52.807Z,20.31
2022-09-02T03:29:55.798Z,20.30
2022-09-02T03:30:58.992Z,20.29
2022-09-02T03:32:09.747Z,20.27
2022-09-02T03:33:16.169Z,20.25
2022-09-02T03:34:19.811Z,20.23
2022-09-02T03:35:23.904Z,20.22
2022-09-02T03:36:29.441Z,20.22
2022-09-02T03:37:31.665Z,20.21
2022-09-02T03:38:36.989Z,20.19
2022-09-02T03:39:40.977Z,20.19
2022-09-02T03:40:45.132Z,20.18
2022-09-02T03:41:49.105Z,20.17
2022-09-02T03:42:59.755Z,20.18
2022-09-02T03:44:02.546Z,20.17
2022-09-02T03:45:07.318Z,20.17
2022-09-02T03:46:10.623Z,20.16
2022-09-02T03:47:17.698Z,20.14
2022-09-02T03:48:23.209Z,20.15
2022-09-02T03:49:27.489Z,20.14
2022-09-02T03:50:32.713Z,20.13
2022-09-02T03:51:35.552Z,20.13
2022-09-02T03:52:37.427Z,20.12
2022-09-02T03:53:40.070Z,20.11
2022-09-02T03:54:41.724Z,20.12
2022-09-02T03:55:44.449Z,20.10
2022-09-02T03:56:47.986Z,20.07
2022-09-02T03:57:49.969Z,20.06
2022-09-02T03:58:56.962Z,20.06
2022-09-02T03:59:58.777Z,20.05
2022-09-02T04:01:05.450Z,20.04
2022-09-02T04:02:08.299Z,20.05
2022-09-02T04:03:13.018Z,20.03
2022-09-02T04:04:14.738Z,20.03
2022-09-02T04:05:18.016Z,20.02
2022-09-02T04:06:23.736Z,20.01
2022-09-02T04:07:30.056Z,20.00
2022-09-02T04:08:31.961Z,20.01
2022-09-02T04:09:35.158Z,20.01
2022-09-02T04:10:37.919Z,20.00
2022-09-02T04:11:42.888Z,19.99
2022-09-02T04:12:44.584Z,20.00
2022-09-02T04:13:47.874Z,20.00
2022-09-02T04:14:51.936Z,20.01
2022-09-02T04:16:02.093Z,20.01
2022-09-02T04:17:04.418Z,20.01
2022-09-02T04:18:07.336Z,20.01
2022-09-02T04:19:09.775Z,20.01
2022-09-02T04:20:14.907Z,20.02
2022-09-02T04:21:16.933Z,20.02
2022-09-02T04:22:20.267Z,20.02
2022-09-02T04:23:22.048Z,20.02
2022-09-02T04:24:25.115Z,20.02
2022-09-02T04:25:28.053Z,20.01
2022-09-02T04:26:31.324Z,20.01
2022-09-02T04:27:33.241Z,20.00
2022-09-02T04:28:36.346Z,19.99
2022-09-02T04:29:38.287Z,20.00
2022-09-02T04:30:44.904Z,20.00
2022-09-02T04:31:46.977Z,19.99
2022-09-02T04:32:49.979Z,20.00
2022-09-02T04:33:52.768Z,20.01
2022-09-02T04:34:55.768Z,20.02
2022-09-02T04:36:00.430Z,20.04
2022-09-02T04:37:03.835Z,20.06
2022-09-02T04:38:05.543Z,20.07
2022-09-02T04:39:09.573Z,20.08
2022-09-02T04:40:12.571Z,20.12
2022-09-02T04:41:18.005Z,20.13
2022-09-02T04:42:19.838Z,20.13
2022-09-02T04:43:22.484Z,20.16
2022-09-02T04:44:25.490Z,20.17
2022-09-02T04:45:29.968Z,20.17
2022-09-02T04:46:34.662Z,20.19
2022-09-02T04:47:37.924Z,20.19
2022-09-02T04:48:40.719Z,20.19
2022-09-02T04:49:43.363Z,20.19
2022-09-02T04:50:45.823Z,20.19
2022-09-02T04:51:48.727Z,20.19
2022-09-02T04:52:51.084Z,20.19
2022-09-02T04:53:54.747Z,20.18
2022-09-02T04:54:56.439Z,20.19
2022-09-02T04:55:59.149Z,20.18
2022-09-02T04:57:01.862Z,20.19
2022-09-02T04:58:03.584Z,20.16
2022-09-02T04:59:07.103Z,20.16
2022-09-02T05:00:10.047Z,20.15
2022-09-02T05:01:18.200Z,20.15
2022-09-02T05:02:21.554Z,20.12
2022-09-02T05:03:24.725Z,20.11
2022-09-02T05:04:26.786Z,20.09
2022-09-02T05:05:30.083Z,20.08
2022-09-02T05:06:32.081Z,20.06
2022-09-02T05:07:36.768Z,20.05
2022-09-02T05:08:38.854Z,20.04
2022-09-02T05:09:43.144Z,20.03
2022-09-02T05:10:48.259Z,20.03
2022-09-02T05:11:52.005Z,20.02
2022-09-02T05:12:55.280Z,20.01
2022-09-02T05:14:00.044Z,20.01
2022-09-02T05:15:02.571Z,20.01
2022-09-02T05:16:05.685Z,19.99
2022-09-02T05:17:07.977Z,19.98
2022-09-02T05:18:12.468Z,19.99
2022-09-02T05:19:14.645Z,19.99
2022-09-02T05:20:19.567Z,19.98
2022-09-02T05:21:23.181Z,19.99
2022-09-02T05:22:29.573Z,19.99
2022-09-02T05:23:31.233Z,20.01
2022-09-02T05:24:34.050Z,20.02
2022-09-02T05:25:36.891Z,20.03
2022-09-02T05:26:44.582Z,20.06
2022-09-02T05:27:47.501Z,20.07
2022-09-02T05:28:49.849Z,20.10
2022-09-02T05:29:55.792Z,20.14
2022-09-02T05:31:02.913Z,20.16
2022-09-02T05:32:08.092Z,20.18
2022-09-02T05:33:13.723Z,20.22
2022-09-02T05:34:18.931Z,20.25
2022-09-02T05:35:20.701Z,20.27
2022-09-02T05:36:24.062Z,20.32
2022-09-02T05:37:26.346Z,20.36
2022-09-02T05:38:29.095Z,20.42
2022-09-02T05:39:31.273Z,20.49
2022-09-02T05:40:34.773Z,20.55
2022-09-02T05:41:36.551Z,20.62
2022-09-02T05:42:39.520Z,20.66
2022-09-02T05:43:44.558Z,20.71
2022-09-02T05:44:48.826Z,20.73
2022-09-02T05:45:50.664Z,20.72
2022-09-02T05:46:55.202Z,20.72
2022-09-02T05:47:57.214Z,20.72
2022-09-02T05:49:08.750Z,20.70
2022-09-02T05:50:12.167Z,20.71
2022-09-02T05:51:16.046Z,20.74
2022-09-02T05:52:19.168Z,20.76
2022-09-02T05:53:21.350Z,20.76
2022-09-02T05:54:26.069Z,20.74
2022-09-02T05:55:28.189Z,20.72
2022-09-02T05:56:30.943Z,20.71
2022-09-02T05:57:33.366Z,20.71
2022-09-02T05:58:36.077Z,20.70
2022-09-02T05:59:40.131Z,20.70
2022-09-02T06:00:42.803Z,20.68
2022-09-02T06:01:44.764Z,20.68
2022-09-02T06:02:47.510Z,20.67
2022-09-02T06:03:50.531Z,20.69
2022-09-02T06:04:56.835Z,20.70
2022-09-02T06:06:02.986Z,20.70
2022-09-02T06:07:08.961Z,20.72
2022-09-02T06:08:13.640Z,20.73
2022-09-02T06:09:19.191Z,20.74
2022-09-02T06:10:20.988Z,20.75
2022-09-02T06:11:24.694Z,20.76
2022-09-02T06:12:27.758Z,20.79
2022-09-02T06:13:31.701Z,20.81
2022-09-02T06:14:33.958Z,20.83
2022-09-02T06:15:42.597Z,20.84
2022-09-02T06:16:47.307Z,20.87
2022-09-02T06:17:49.233Z,20.89
2022-09-02T06:18:52.722Z,20.91
2022-09-02T06:19:56.089Z,20.92
2022-09-02T06:20:59.430Z,20.94
2022-09-02T06:22:03.449Z,20.96
2022-09-02T06:23:06.358Z,20.99
2022-09-02T06:24:09.982Z,21.02
2022-09-02T06:25:12.687Z,21.05
2022-09-02T06:26:16.236Z,21.07
2022-09-02T06:27:19.035Z,21.10
2022-09-02T06:28:20.639Z,21.13
2022-09-02T06:29:25.442Z,21.16
2022-09-02T06:30:27.316Z,21.17
2022-09-02T06:31:34.710Z,21.21
2022-09-02T06:32:36.678Z,21.24
2022-09-02T06:33:39.403Z,21.24
2022-09-02T06:34:41.069Z,21.27
2022-09-02T06:35:47.336Z,21.30
2022-09-02T06:36:51.158Z,21.33
2022-09-02T06:37:53.154Z,21.36
2022-09-02T06:38:58.007Z,21.40
2022-09-02T06:39:59.989Z,21.42
2022-09-02T06:41:02.673Z,21.43
2022-09-02T06:42:04.531Z,21.47
2022-09-02T06:43:07.282Z,21.50
2022-09-02T06:44:10.964Z,21.53
2022-09-02T06:45:14.329Z,21.57
2022-09-02T06:46:18.087Z,21.61
2022-09-02T06:47:20.761Z,21.61
2022-09-02T06:48:22.586Z,21.65
2022-09-02T06:49:27.281Z,21.67
2022-09-02T06:50:29.120Z,21.68
2022-09-02T06:51:35.601Z,21.70
2022-09-02T06:52:38.585Z,21.72
2022-09-02T06:53:40.404Z,21.74
2022-09-02T06:54:43.090Z,21.77
2022-09-02T06:55:45.983Z,21.81
2022-09-02T06:56:50.070Z,21.86
2022-09-02T06:57:51.798Z,21.90
2022-09-02T06:58:54.469Z,21.94
2022-09-02T07:00:00.017Z,21.96
2022-09-02T07:01:09.001Z,21.98
2022-09-02T07:02:11.869Z,22.00
2022-09-02T07:03:32.406Z,22.03
2022-09-02T07:04:58.796Z,22.05
2022-09-02T07:06:02.587Z,22.10
2022-09-02T07:07:09.112Z,22.14
2022-09-02T07:08:11.370Z,22.19
2022-09-02T07:09:17.636Z,22.21
2022-09-02T07:10:19.354Z,22.23
2022-09-02T07:11:25.300Z,22.27
2022-09-02T07:12:27.230Z,22.27
2022-09-02T07:13:30.389Z,22.27
2022-09-02T07:14:36.468Z,22.26
2022-09-02T07:15:42.018Z,22.25
2022-09-02T07:16:46.999Z,22.26
2022-09-02T07:17:50.569Z,22.25
2022-09-02T07:18:52.574Z,22.25
2022-09-02T07:19:57.399Z,22.26
2022-09-02T07:21:00.025Z,22.27
2022-09-02T07:22:04.037Z,22.30
2022-09-02T07:23:07.062Z,22.33
2022-09-02T07:24:11.100Z,22.37
2022-09-02T07:25:13.816Z,22.41
2022-09-02T07:26:18.075Z,22.46
2022-09-02T07:27:21.226Z,22.52
2022-09-02T07:28:23.205Z,22.55
2022-09-02T07:29:26.149Z,22.58
2022-09-02T07:30:27.975Z,22.58
2022-09-02T07:31:31.007Z,22.58
2022-09-02T07:32:33.835Z,22.59
2022-09-02T07:33:37.409Z,22.61
2022-09-02T07:34:39.982Z,22.62
2022-09-02T07:35:42.575Z,22.62
2022-09-02T07:36:46.520Z,22.61
2022-09-02T07:37:50.932Z,22.61
2022-09-02T07:38:56.137Z,22.60
2022-09-02T07:39:58.602Z,22.59
2022-09-02T07:41:02.046Z,22.59
2022-09-02T07:42:05.680Z,22.61
2022-09-02T07:43:12.915Z,22.62
2022-09-02T07:44:15.342Z,22.61
2022-09-02T07:45:18.282Z,22.63
2022-09-02T07:46:20.956Z,22.60
2022-09-02T07:47:23.957Z,22.56
2022-09-02T07:48:27.952Z,22.53
2022-09-02T07:50:15.311Z,22.52
2022-09-02T07:50:53.885Z,22.47
2022-09-02T07:51:55.706Z,22.44
2022-09-02T07:52:59.534Z,22.43
2022-09-02T07:54:05.707Z,22.43
2022-09-02T07:55:11.363Z,22.43
2022-09-02T07:56:17.747Z,22.45
2022-09-02T07:57:19.938Z,22.44
2022-09-02T07:58:23.597Z,22.44
2022-09-02T07:59:26.381Z,22.44
2022-09-02T08:00:29.186Z,22.45
2022-09-02T08:01:32.471Z,22.45
2022-09-02T08:02:34.553Z,22.47
2022-09-02T08:03:39.567Z,22.49
2022-09-02T08:04:42.021Z,22.47
2022-09-02T08:05:47.120Z,22.48
2022-09-02T08:06:52.094Z,22.49
2022-09-02T08:07:55.049Z,22.52
2022-09-02T08:08:56.889Z,22.53
2022-09-02T08:10:01.254Z,22.54
2022-09-02T08:11:03.887Z,22.54
2022-09-02T08:12:07.252Z,22.55
2022-09-02T08:13:10.457Z,22.57
2022-09-02T08:14:18.045Z,22.58
2022-09-02T08:15:20.184Z,22.57
2022-09-02T08:16:23.325Z,22.59
2022-09-02T08:17:25.856Z,22.61
2022-09-02T08:18:28.482Z,22.63
2022-09-02T08:19:30.231Z,22.66
2022-09-02T08:20:32.817Z,22.69
2022-09-02T08:21:35.214Z,22.75
2022-09-02T08:22:37.871Z,22.79
2022-09-02T08:23:41.206Z,22.84
2022-09-02T08:24:43.714Z,22.89
2022-09-02T08:25:47.786Z,22.94
2022-09-02T08:26:49.527Z,22.99
2022-09-02T08:27:52.376Z,23.02
2022-09-02T08:28:55.351Z,23.06
2022-09-02T08:29:57.054Z,23.07
2022-09-02T08:30:59.791Z,23.11
2022-09-02T08:32:02.695Z,23.13
2022-09-02T08:33:04.965Z,23.15
2022-09-02T08:34:07.588Z,23.17
2022-09-02T08:35:11.574Z,23.18
2022-09-02T08:36:15.100Z,23.19
2022-09-02T08:37:19.150Z,23.21
2022-09-02T08:38:22.579Z,23.23
2022-09-02T08:39:24.628Z,23.27
2022-09-02T08:40:34.302Z,23.30
2022-09-02T08:41:48.026Z,23.31
2022-09-02T08:42:53.373Z,23.34
2022-09-02T08:44:00.368Z,23.35
2022-09-02T08:45:09.626Z,23.39
2022-09-02T08:46:16.502Z,23.41
2022-09-02T08:47:24.710Z,23.44
2022-09-02T08:48:35.847Z,23.47
2022-09-02T08:49:42.536Z,23.50
2022-09-02T08:50:47.000Z,23.51
2022-09-02T08:51:53.787Z,23.54
2022-09-02T08:53:05.503Z,23.54
2022-09-02T08:54:14.972Z,23.56
2022-09-02T08:55:22.569Z,23.55
2022-09-02T08:56:26.463Z,23.57
2022-09-02T08:57:32.414Z,23.58
2022-09-02T08:58:39.160Z,23.60
2022-09-02T08:59:43.843Z,23.61
2022-09-02T09:00:51.749Z,23.63
2022-09-02T09:02:02.021Z,23.65
2022-09-02T09:03:16.475Z,23.66
2022-09-02T09:04:26.273Z,23.67
2022-09-02T09:05:38.960Z,23.66
2022-09-02T09:06:54.837Z,23.66
2022-09-02T09:08:04.872Z,23.67
2022-09-02T09:09:15.611Z,23.67
2022-09-02T09:10:24.401Z,23.68
2022-09-02T09:11:35.254Z,23.68
2022-09-02T09:13:01.657Z,23.69
2022-09-02T09:14:20.392Z,23.73
2022-09-02T09:15:31.505Z,23.78
2022-09-02T09:16:41.980Z,23.81
2022-09-02T09:17:48.728Z,23.86
2022-09-02T09:18:59.777Z,23.88
2022-09-02T09:20:09.711Z,23.91
2022-09-02T09:21:12.061Z,23.94
2022-09-02T09:22:18.845Z,23.97
2022-09-02T09:23:34.210Z,24.01
2022-09-02T09:24:40.178Z,24.05
2022-09-02T09:25:44.770Z,24.07
2022-09-02T09:26:48.287Z,24.07
2022-09-02T09:27:52.452Z,24.10
2022-09-02T09:28:55.940Z,24.13
2022-09-02T09:29:58.624Z,24.13
2022-09-02T09:31:00.741Z,24.13
2022-09-02T09:32:04.606Z,24.13
2022-09-02T09:33:06.543Z,24.13
2022-09-02T09:34:12.158Z,24.12
2022-09-02T09:35:17.081Z,24.11
2022-09-02T09:36:18.866Z,24.11
2022-09-02T09:37:35.263Z,24.14
2022-09-02T09:38:38.676Z,24.12
2022-09-02T09:39:40.532Z,24.14
2022-09-02T09:40:43.731Z,24.16
2022-09-02T09:41:46.218Z,24.18
2022-09-02T09:42:51.037Z,24.20
2022-09-02T09:43:56.848Z,24.23
2022-09-02T09:44:59.572Z,24.23
2022-09-02T09:46:21.464Z,24.22
2022-09-02T09:47:25.980Z,24.23
2022-09-02T09:48:29.849Z,24.23
2022-09-02T09:49:34.061Z,24.26
2022-09-02T09:50:35.701Z,24.26
2022-09-02T09:51:40.130Z,24.29
2022-09-02T09:52:53.493Z,24.31
2022-09-02T09:54:16.010Z,24.30
2022-09-02T09:55:24.441Z,24.33
2022-09-02T09:56:37.461Z,24.32
2022-09-02T09:57:40.466Z,24.32
2022-09-02T09:58:49.181Z,24.33
2022-09-02T09:59:56.859Z,24.38
2022-09-02T10:01:00.531Z,24.38
2022-09-02T10:02:02.654Z,24.40
2022-09-02T10:03:08.283Z,24.43
2022-09-02T10:04:46.458Z,24.44
2022-09-02T10:05:50.901Z,24.43
2022-09-02T10:06:52.618Z,24.45
2022-09-02T10:07:57.108Z,24.47
2022-09-02T10:09:03.794Z,24.47
2022-09-02T10:10:19.163Z,24.48
2022-09-02T10:11:24.899Z,24.49
2022-09-02T10:12:32.657Z,24.51
2022-09-02T10:13:38.034Z,24.54
2022-09-02T10:14:43.203Z,24.56
2022-09-02T10:15:59.870Z,24.61
2022-09-02T10:17:15.231Z,24.64
2022-09-02T10:18:31.285Z,24.67
2022-09-02T10:19:40.189Z,24.69
2022-09-02T10:22:58.950Z,24.70
2022-09-02T10:24:11.510Z,24.75
2022-09-02T10:25:23.754Z,24.79
2022-09-02T10:26:37.503Z,24.83
2022-09-02T10:27:50.284Z,24.84
2022-09-02T10:29:08.865Z,24.91
2022-09-02T10:30:19.140Z,24.97
2022-09-02T10:31:31.193Z,25.00
2022-09-02T10:32:56.597Z,25.01
2022-09-02T10:34:11.280Z,25.00
2022-09-02T10:35:21.478Z,25.01
2022-09-02T10:36:33.901Z,25.01
2022-09-02T10:37:43.411Z,25.05
2022-09-02T10:38:48.902Z,25.13
2022-09-02T10:40:08.472Z,25.22
2022-09-02T10:41:24.796Z,25.31
2022-09-02T10:42:35.949Z,25.38
2022-09-02T10:43:59.072Z,25.44
2022-09-02T10:45:08.827Z,25.50
2022-09-02T10:46:20.809Z,25.56
2022-09-02T10:47:35.035Z,25.61
2022-09-02T10:48:50.240Z,25.69
2022-09-02T10:50:08.930Z,25.77
2022-09-02T10:51:16.992Z,25.89
2022-09-02T10:52:43.416Z,25.98
2022-09-02T10:53:59.687Z,26.06
2022-09-02T10:55:13.887Z,26.11
2022-09-02T10:56:21.482Z,26.14
2022-09-02T10:57:29.274Z,26.15
2022-09-02T10:58:45.208Z,26.16
2022-09-02T10:59:54.588Z,26.18
2022-09-02T11:00:58.544Z,26.19
2022-09-02T11:02:08.133Z,26.16
2022-09-02T11:03:20.655Z,26.13
2022-09-02T11:04:32.193Z,26.07
2022-09-02T11:05:43.012Z,26.02
2022-09-02T11:07:03.954Z,26.01
2022-09-02T11:08:11.078Z,26.02
2022-09-02T11:09:17.965Z,26.08
2022-09-02T11:10:26.681Z,26.13
2022-09-02T11:11:37.839Z,26.17
2022-09-02T11:12:45.016Z,26.21
2022-09-02T11:13:58.595Z,26.27
2022-09-02T11:15:10.907Z,26.36
2022-09-02T11:16:19.042Z,26.42
2022-09-02T11:17:29.561Z,26.49
2022-09-02T11:18:42.743Z,26.53
2022-09-02T11:19:54.206Z,26.57
2022-09-02T11:21:03.604Z,26.61
2022-09-02T11:22:16.123Z,26.64
2022-09-02T11:23:28.656Z,26.68
2022-09-02T11:24:36.454Z,26.76
2022-09-02T11:25:43.277Z,26.81
2022-09-02T11:26:56.206Z,26.87
2022-09-02T11:28:06.482Z,26.90
2022-09-02T11:29:16.402Z,26.94
2022-09-02T11:30:22.223Z,26.96
2022-09-02T11:31:30.184Z,26.97
2022-09-02T11:32:38.963Z,26.95
2022-09-02T11:33:53.630Z,26.90
2022-09-02T11:34:59.112Z,26.89
2022-09-02T11:36:02.029Z,26.86
2022-09-02T11:37:06.707Z,26.86
2022-09-02T11:38:26.455Z,26.86
2022-09-02T11:39:51.800Z,26.81
2022-09-02T11:41:35.570Z,26.71
2022-09-02T11:43:05.527Z,26.58
2022-09-02T11:44:28.186Z,26.50
2022-09-02T11:45:54.567Z,26.43
2022-09-02T11:47:10.015Z,26.36
2022-09-02T11:48:42.401Z,26.33
2022-09-02T11:50:04.301Z,26.31
2022-09-02T11:51:26.400Z,26.35
2022-09-02T11:52:44.691Z,26.41
2022-09-02T11:53:48.738Z,26.47
2022-09-02T11:55:08.123Z,26.53
2022-09-02T11:56:16.105Z,26.58
2022-09-02T11:57:25.682Z,26.63
2022-09-02T11:58:37.449Z,26.67
2022-09-02T12:00:07.301Z,26.67
2022-09-02T12:01:25.217Z,26.71
2022-09-02T12:02:35.607Z,26.76
2022-09-02T12:03:58.705Z,26.80
2022-09-02T12:05:35.564Z,26.86
2022-09-02T12:07:19.218Z,26.90
2022-09-02T12:09:13.680Z,26.92
2022-09-02T12:11:06.664Z,26.92
2022-09-02T12:12:09.983Z,26.91
2022-09-02T12:13:31.637Z,26.95
2022-09-02T12:15:14.831Z,26.94
2022-09-02T12:16:42.412Z,26.98
2022-09-02T12:18:15.448Z,27.02
2022-09-02T12:19:27.772Z,26.99
2022-09-02T12:21:18.283Z,26.93
2022-09-02T12:22:32.552Z,26.84
2022-09-02T12:24:20.114Z,26.74
2022-09-02T12:25:38.606Z,26.69
2022-09-02T12:27:08.018Z,26.67
2022-09-02T12:28:25.322Z,26.65
2022-09-02T12:29:33.168Z,26.65
2022-09-02T12:31:23.556Z,26.65
2022-09-02T12:33:04.397Z,26.65
2022-09-02T12:34:56.427Z,26.68
2022-09-02T12:35:59.790Z,26.75
2022-09-02T12:37:02.573Z,26.81
2022-09-02T12:38:35.009Z,26.89
2022-09-02T12:39:54.618Z,26.91
2022-09-02T12:41:08.765Z,26.94
2022-09-02T12:42:22.202Z,26.94
2022-09-02T12:43:28.627Z,26.95
2022-09-02T12:44:36.673Z,26.98
2022-09-02T12:45:43.978Z,26.98
2022-09-02T12:47:01.695Z,26.97
2022-09-02T12:48:13.113Z,26.96
2022-09-02T12:49:28.538Z,26.93
2022-09-02T12:50:36.160Z,26.94
2022-09-02T12:51:52.907Z,26.95
2022-09-02T12:53:18.044Z,26.95
2022-09-02T12:54:32.411Z,26.96
2022-09-02T12:55:36.247Z,26.95
2022-09-02T12:56:38.705Z,26.96
2022-09-02T12:57:43.810Z,26.97
2022-09-02T12:58:49.287Z,27.01
2022-09-02T12:59:59.629Z,27.05
2022-09-02T13:01:10.110Z,27.08
2022-09-02T13:02:35.724Z,27.08
2022-09-02T13:03:52.852Z,27.08
2022-09-02T13:05:08.440Z,27.06
2022-09-02T13:06:23.284Z,27.05
2022-09-02T13:07:59.713Z,27.00
2022-09-02T13:09:31.271Z,26.95
2022-09-02T13:10:46.714Z,26.92
2022-09-02T13:12:13.167Z,26.91
2022-09-02T13:13:47.728Z,26.92
2022-09-02T13:15:01.171Z,26.93
2022-09-02T13:16:18.644Z,26.95
2022-09-02T13:17:42.999Z,26.98
2022-09-02T13:19:12.881Z,27.01
2022-09-02T13:20:40.096Z,27.08
2022-09-02T13:22:06.201Z,27.14
2022-09-02T13:24:03.787Z,27.22
2022-09-02T13:25:41.446Z,27.28
2022-09-02T13:27:01.947Z,27.31
2022-09-02T13:28:36.718Z,27.34
2022-09-02T13:30:05.975Z,27.35
2022-09-02T13:31:18.261Z,27.41
2022-09-02T13:32:24.814Z,27.46
2022-09-02T13:33:28.408Z,27.51
2022-09-02T13:34:31.828Z,27.57
2022-09-02T13:35:39.013Z,27.60
2022-09-02T13:36:45.210Z,27.62
2022-09-02T13:37:55.753Z,27.63
2022-09-02T13:39:10.566Z,27.61
2022-09-02T13:40:19.844Z,27.61
2022-09-02T13:41:31.115Z,27.61
2022-09-02T13:42:34.080Z,27.61
2022-09-02T13:43:36.940Z,27.63
2022-09-02T13:44:38.575Z,27.66
2022-09-02T13:45:41.805Z,27.68
2022-09-02T13:46:45.874Z,27.68
2022-09-02T13:47:51.778Z,27.70
2022-09-02T13:48:53.751Z,27.71
2022-09-02T13:49:57.867Z,27.74
2022-09-02T13:51:10.034Z,27.76
2022-09-02T13:52:16.897Z,27.76
2022-09-02T13:54:18.220Z,27.76
2022-09-02T13:54:53.953Z,27.73
2022-09-02T13:55:57.611Z,27.70
2022-09-02T13:57:05.502Z,27.68
2022-09-02T13:58:19.812Z,27.64
2022-09-02T13:59:33.374Z,27.56
2022-09-02T14:00:37.601Z,27.50
2022-09-02T14:01:40.893Z,27.46
2022-09-02T14:02:57.434Z,27.38
2022-09-02T14:04:06.278Z,27.31
2022-09-02T14:05:15.616Z,27.26
2022-09-02T14:06:23.015Z,27.24
2022-09-02T14:07:32.716Z,27.21
2022-09-02T14:08:35.140Z,27.18
2022-09-02T14:09:39.748Z,27.15
2022-09-02T14:10:43.775Z,27.12
2022-09-02T14:11:48.017Z,27.09
2022-09-02T14:12:52.048Z,27.08
2022-09-02T14:13:56.122Z,27.06
2022-09-02T14:14:58.610Z,27.05
2022-09-02T14:16:26.009Z,27.05
2022-09-02T14:17:29.189Z,27.02
2022-09-02T14:18:30.852Z,27.06
2022-09-02T14:19:33.593Z,27.06
2022-09-02T14:20:37.658Z,27.08
2022-09-02T14:21:46.824Z,27.06
2022-09-02T14:22:59.983Z,27.04
2022-09-02T14:24:02.412Z,27.01
2022-09-02T14:25:10.603Z,26.96
2022-09-02T14:26:21.099Z,26.92
2022-09-02T14:27:24.500Z,26.89